sensor_id;sensor_type;location;lat;lon;timestamp;temperature;humidity
9043;DHT22;4556;49.150;8.808;2023-01-04T00:02:40;4.80;99.90
9043;DHT22;4556;49.150;8.808;2023-01-04T00:05:07;1.80;99.90
9043;DHT22;4556;49.150;8.808;2023-01-04T00:07:34;1.70;99.90
9043;DHT22;4556;49.150;8.808;2023-01-04T00:10:01;1.80;99.90
9043;DHT22;4556;49.150;8.808;2023-01-04T00:12:28;1.70;99.90
9043;DHT22;4556;49.150;8.808;2023-01-04T00:14:56;1.80;99.90
9043;DHT22;4556;49.150;8.808;2023-01-04T00:17:23;2.90;99.90
9043;DHT22;4556;49.150;8.808;2023-01-04T00:19:50;3.70;99.90
9043;DHT22;4556;49.150;8.808;2023-01-04T00:24:44;1.70;99.90
9043;DHT22;4556;49.150;8.808;2023-01-04T00:27:11;4.80;99.90
9043;DHT22;4556;49.150;8.808;2023-01-04T00:29:38;4.60;99.90
9043;DHT22;4556;49.150;8.808;2023-01-04T00:32:07;1.60;99.90
9043;DHT22;4556;49.150;8.808;2023-01-04T00:34:33;2.70;99.90
9043;DHT22;4556;49.150;8.808;2023-01-04T00:37:00;3.30;99.90
9043;DHT22;4556;49.150;8.808;2023-01-04T00:39:27;1.60;99.90
9043;DHT22;4556;49.150;8.808;2023-01-04T00:41:54;4.20;99.90
9043;DHT22;4556;49.150;8.808;2023-01-04T00:44:30;2.80;99.90
9043;DHT22;4556;49.150;8.808;2023-01-04T00:46:57;2.20;99.90
9043;DHT22;4556;49.150;8.808;2023-01-04T00:49:26;2.60;99.90
9043;DHT22;4556;49.150;8.808;2023-01-04T00:51:54;2.40;99.90
9043;DHT22;4556;49.150;8.808;2023-01-04T00:54:21;3.20;99.90
9043;DHT22;4556;49.150;8.808;2023-01-04T00:56:49;2.20;99.90
9043;DHT22;4556;49.150;8.808;2023-01-04T00:59:18;4.30;99.90
9043;DHT22;4556;49.150;8.808;2023-01-04T01:01:45;1.30;99.90
9043;DHT22;4556;49.150;8.808;2023-01-04T01:04:14;1.30;99.90
9043;DHT22;4556;49.150;8.808;2023-01-04T01:06:43;4.40;99.90
9043;DHT22;4556;49.150;8.808;2023-01-04T01:09:10;2.90;99.90
9043;DHT22;4556;49.150;8.808;2023-01-04T01:11:38;4.00;99.90
9043;DHT22;4556;49.150;8.808;2023-01-04T01:14:05;1.80;99.90
9043;DHT22;4556;49.150;8.808;2023-01-04T01:16:33;4.00;99.90
9043;DHT22;4556;49.150;8.808;2023-01-04T01:19:00;3.70;99.90
9043;DHT22;4556;49.150;8.808;2023-01-04T01:21:27;4.20;99.90
9043;DHT22;4556;49.150;8.808;2023-01-04T01:23:55;3.80;99.90
9043;DHT22;4556;49.150;8.808;2023-01-04T01:26:23;3.50;99.90
9043;DHT22;4556;49.150;8.808;2023-01-04T01:28:52;4.10;99.90
9043;DHT22;4556;49.150;8.808;2023-01-04T01:31:20;4.20;99.90
9043;DHT22;4556;49.150;8.808;2023-01-04T01:33:48;4.00;99.90
9043;DHT22;4556;49.150;8.808;2023-01-04T01:36:17;0.90;99.90
9043;DHT22;4556;49.150;8.808;2023-01-04T01:38:45;2.70;99.90
9043;DHT22;4556;49.150;8.808;2023-01-04T01:41:18;1.80;99.90
9043;DHT22;4556;49.150;8.808;2023-01-04T01:43:49;1.50;99.90
9043;DHT22;4556;49.150;8.808;2023-01-04T01:46:20;3.40;99.90
9043;DHT22;4556;49.150;8.808;2023-01-04T01:48:49;3.10;99.90
9043;DHT22;4556;49.150;8.808;2023-01-04T01:51:18;0.90;99.90
9043;DHT22;4556;49.150;8.808;2023-01-04T01:53:47;0.90;99.90
9043;DHT22;4556;49.150;8.808;2023-01-04T01:56:17;1.00;99.90
9043;DHT22;4556;49.150;8.808;2023-01-04T01:58:50;2.50;99.90
9043;DHT22;4556;49.150;8.808;2023-01-04T02:01:18;1.00;99.90
9043;DHT22;4556;49.150;8.808;2023-01-04T02:03:45;2.90;99.90
9043;DHT22;4556;49.150;8.808;2023-01-04T02:06:16;4.10;99.90
9043;DHT22;4556;49.150;8.808;2023-01-04T02:08:45;3.00;99.90
9043;DHT22;4556;49.150;8.808;2023-01-04T02:13:41;1.00;99.90
9043;DHT22;4556;49.150;8.808;2023-01-04T02:19:34;4.20;99.90
9043;DHT22;4556;49.150;8.808;2023-01-04T02:25:14;0.80;99.90
9043;DHT22;4556;49.150;8.808;2023-01-04T02:27:52;1.00;99.90
9043;DHT22;4556;49.150;8.808;2023-01-04T02:30:50;1.40;99.90
9043;DHT22;4556;49.150;8.808;2023-01-04T02:33:27;0.70;99.90
9043;DHT22;4556;49.150;8.808;2023-01-04T02:36:04;0.60;99.90
9043;DHT22;4556;49.150;8.808;2023-01-04T02:38:45;0.60;99.90
9043;DHT22;4556;49.150;8.808;2023-01-04T02:41:18;1.40;99.90
9043;DHT22;4556;49.150;8.808;2023-01-04T02:43:52;0.70;99.90
9043;DHT22;4556;49.150;8.808;2023-01-04T02:46:44;3.20;99.90
9043;DHT22;4556;49.150;8.808;2023-01-04T02:49:11;1.80;99.90
9043;DHT22;4556;49.150;8.808;2023-01-04T02:51:56;3.10;99.90
9043;DHT22;4556;49.150;8.808;2023-01-04T02:54:25;0.60;99.90
9043;DHT22;4556;49.150;8.808;2023-01-04T03:00:17;0.80;99.90
9043;DHT22;4556;49.150;8.808;2023-01-04T03:03:15;0.80;99.90
9043;DHT22;4556;49.150;8.808;2023-01-04T03:06:07;0.80;99.90
9043;DHT22;4556;49.150;8.808;2023-01-04T03:08:55;1.60;99.90
9043;DHT22;4556;49.150;8.808;2023-01-04T03:11:30;0.60;99.90
9043;DHT22;4556;49.150;8.808;2023-01-04T03:14:20;2.10;99.90
9043;DHT22;4556;49.150;8.808;2023-01-04T03:16:49;0.90;99.90
9043;DHT22;4556;49.150;8.808;2023-01-04T03:19:21;0.90;99.90
9043;DHT22;4556;49.150;8.808;2023-01-04T03:22:14;1.80;99.90
9043;DHT22;4556;49.150;8.808;2023-01-04T03:24:58;3.50;99.90
9043;DHT22;4556;49.150;8.808;2023-01-04T03:27:47;1.90;99.90
9043;DHT22;4556;49.150;8.808;2023-01-04T03:30:34;2.20;99.90
9043;DHT22;4556;49.150;8.808;2023-01-04T03:33:21;3.40;99.90
9043;DHT22;4556;49.150;8.808;2023-01-04T03:36:18;3.70;99.90
9043;DHT22;4556;49.150;8.808;2023-01-04T03:38:53;1.80;99.90
9043;DHT22;4556;49.150;8.808;2023-01-04T03:41:44;2.70;99.90
9043;DHT22;4556;49.150;8.808;2023-01-04T03:44:33;4.10;99.90
9043;DHT22;4556;49.150;8.808;2023-01-04T03:47:26;3.40;99.90
9043;DHT22;4556;49.150;8.808;2023-01-04T03:50:16;1.20;99.90
9043;DHT22;4556;49.150;8.808;2023-01-04T03:52:47;1.50;99.90
9043;DHT22;4556;49.150;8.808;2023-01-04T03:55:16;4.10;99.90
9043;DHT22;4556;49.150;8.808;2023-01-04T03:57:44;1.40;99.90
9043;DHT22;4556;49.150;8.808;2023-01-04T04:00:14;1.30;99.90
9043;DHT22;4556;49.150;8.808;2023-01-04T04:02:47;1.40;99.90
9043;DHT22;4556;49.150;8.808;2023-01-04T04:05:16;1.40;99.90
9043;DHT22;4556;49.150;8.808;2023-01-04T04:08:03;2.30;99.90
9043;DHT22;4556;49.150;8.808;2023-01-04T04:10:48;1.30;99.90
9043;DHT22;4556;49.150;8.808;2023-01-04T04:13:15;1.40;99.90
9043;DHT22;4556;49.150;8.808;2023-01-04T04:15:42;1.40;99.90
9043;DHT22;4556;49.150;8.808;2023-01-04T04:18:09;1.50;99.90
9043;DHT22;4556;49.150;8.808;2023-01-04T04:20:36;3.90;99.90
9043;DHT22;4556;49.150;8.808;2023-01-04T04:23:04;1.50;99.90
9043;DHT22;4556;49.150;8.808;2023-01-04T04:25:31;3.80;99.90
9043;DHT22;4556;49.150;8.808;2023-01-04T04:27:58;4.20;99.90
9043;DHT22;4556;49.150;8.808;2023-01-04T04:30:25;3.20;99.90
9043;DHT22;4556;49.150;8.808;2023-01-04T04:32:52;2.80;99.90
9043;DHT22;4556;49.150;8.808;2023-01-04T04:35:19;4.30;99.90
9043;DHT22;4556;49.150;8.808;2023-01-04T04:37:46;2.30;99.90
9043;DHT22;4556;49.150;8.808;2023-01-04T04:40:14;3.70;99.90
9043;DHT22;4556;49.150;8.808;2023-01-04T04:42:59;2.60;99.90
9043;DHT22;4556;49.150;8.808;2023-01-04T04:45:26;1.90;99.90
9043;DHT22;4556;49.150;8.808;2023-01-04T04:47:53;4.20;99.90
9043;DHT22;4556;49.150;8.808;2023-01-04T04:50:19;3.80;99.90
9043;DHT22;4556;49.150;8.808;2023-01-04T04:52:47;4.50;99.90
9043;DHT22;4556;49.150;8.808;2023-01-04T04:55:15;2.40;99.90
9043;DHT22;4556;49.150;8.808;2023-01-04T04:57:42;4.00;99.90
9043;DHT22;4556;49.150;8.808;2023-01-04T05:00:10;5.10;99.90
9043;DHT22;4556;49.150;8.808;2023-01-04T05:02:37;2.50;99.90
9043;DHT22;4556;49.150;8.808;2023-01-04T05:05:05;5.60;99.90
9043;DHT22;4556;49.150;8.808;2023-01-04T05:07:32;2.60;99.90
9043;DHT22;4556;49.150;8.808;2023-01-04T05:09:59;5.40;99.90
9043;DHT22;4556;49.150;8.808;2023-01-04T05:12:30;3.30;99.90
9043;DHT22;4556;49.150;8.808;2023-01-04T05:15:15;5.20;99.90
9043;DHT22;4556;49.150;8.808;2023-01-04T05:17:42;2.80;99.90
9043;DHT22;4556;49.150;8.808;2023-01-04T05:20:09;5.30;99.90
9043;DHT22;4556;49.150;8.808;2023-01-04T05:22:37;2.70;99.90
9043;DHT22;4556;49.150;8.808;2023-01-04T05:25:04;4.20;99.90
9043;DHT22;4556;49.150;8.808;2023-01-04T05:27:34;2.70;99.90
9043;DHT22;4556;49.150;8.808;2023-01-04T05:30:01;2.70;99.90
9043;DHT22;4556;49.150;8.808;2023-01-04T05:32:46;2.60;99.90
9043;DHT22;4556;49.150;8.808;2023-01-04T05:35:13;2.60;99.90
9043;DHT22;4556;49.150;8.808;2023-01-04T05:37:40;2.50;99.90
9043;DHT22;4556;49.150;8.808;2023-01-04T05:40:08;5.00;99.90
9043;DHT22;4556;49.150;8.808;2023-01-04T05:42:37;2.60;99.90
9043;DHT22;4556;49.150;8.808;2023-01-04T05:45:05;3.40;99.90
9043;DHT22;4556;49.150;8.808;2023-01-04T05:47:32;3.00;99.90
9043;DHT22;4556;49.150;8.808;2023-01-04T05:49:59;3.20;99.90
9043;DHT22;4556;49.150;8.808;2023-01-04T05:52:27;4.30;99.90
9043;DHT22;4556;49.150;8.808;2023-01-04T05:54:54;2.10;99.90
9043;DHT22;4556;49.150;8.808;2023-01-04T05:57:21;3.00;99.90
9043;DHT22;4556;49.150;8.808;2023-01-04T05:59:49;2.10;99.90
9043;DHT22;4556;49.150;8.808;2023-01-04T06:02:18;5.40;99.90
9043;DHT22;4556;49.150;8.808;2023-01-04T06:04:46;5.60;99.90
9043;DHT22;4556;49.150;8.808;2023-01-04T06:07:14;5.40;99.90
9043;DHT22;4556;49.150;8.808;2023-01-04T06:09:41;5.20;99.90
9043;DHT22;4556;49.150;8.808;2023-01-04T06:12:08;5.20;99.90
9043;DHT22;4556;49.150;8.808;2023-01-04T06:14:36;2.90;99.90
9043;DHT22;4556;49.150;8.808;2023-01-04T06:17:05;3.10;99.90
9043;DHT22;4556;49.150;8.808;2023-01-04T06:19:33;2.30;99.90
9043;DHT22;4556;49.150;8.808;2023-01-04T06:22:00;3.10;99.90
9043;DHT22;4556;49.150;8.808;2023-01-04T06:24:27;5.10;99.90
9043;DHT22;4556;49.150;8.808;2023-01-04T06:26:54;1.90;99.90
9043;DHT22;4556;49.150;8.808;2023-01-04T06:29:21;3.40;99.90
9043;DHT22;4556;49.150;8.808;2023-01-04T06:31:48;4.30;99.90
9043;DHT22;4556;49.150;8.808;2023-01-04T06:34:16;6.10;99.90
9043;DHT22;4556;49.150;8.808;2023-01-04T06:36:43;4.20;99.90
9043;DHT22;4556;49.150;8.808;2023-01-04T06:39:10;3.10;99.90
9043;DHT22;4556;49.150;8.808;2023-01-04T06:41:37;4.80;99.90
9043;DHT22;4556;49.150;8.808;2023-01-04T06:44:05;5.70;99.90
9043;DHT22;4556;49.150;8.808;2023-01-04T06:46:35;3.50;99.90
9043;DHT22;4556;49.150;8.808;2023-01-04T06:49:03;5.60;99.90
9043;DHT22;4556;49.150;8.808;2023-01-04T06:51:31;3.30;99.90
9043;DHT22;4556;49.150;8.808;2023-01-04T06:53:58;5.70;99.90
9043;DHT22;4556;49.150;8.808;2023-01-04T06:56:25;4.90;99.90
9043;DHT22;4556;49.150;8.808;2023-01-04T06:58:52;3.30;99.90
9043;DHT22;4556;49.150;8.808;2023-01-04T07:01:19;3.80;99.90
9043;DHT22;4556;49.150;8.808;2023-01-04T07:03:47;4.00;99.90
9043;DHT22;4556;49.150;8.808;2023-01-04T07:06:19;3.80;99.90
9043;DHT22;4556;49.150;8.808;2023-01-04T07:08:49;5.00;99.90
9043;DHT22;4556;49.150;8.808;2023-01-04T07:11:18;4.80;99.90
9043;DHT22;4556;49.150;8.808;2023-01-04T07:13:49;4.70;99.90
9043;DHT22;4556;49.150;8.808;2023-01-04T07:16:26;2.80;99.90
9043;DHT22;4556;49.150;8.808;2023-01-04T07:19:11;4.60;99.90
9043;DHT22;4556;49.150;8.808;2023-01-04T08:42:03;4.30;99.90
9043;DHT22;4556;49.150;8.808;2023-01-04T08:54:49;4.50;99.90
9043;DHT22;4556;49.150;8.808;2023-01-04T08:57:30;6.90;99.90
9043;DHT22;4556;49.150;8.808;2023-01-04T09:00:20;4.60;99.90
9043;DHT22;4556;49.150;8.808;2023-01-04T09:03:08;4.80;99.90
9043;DHT22;4556;49.150;8.808;2023-01-04T09:05:39;5.40;99.90
9043;DHT22;4556;49.150;8.808;2023-01-04T09:08:07;5.20;99.90
9043;DHT22;4556;49.150;8.808;2023-01-04T09:10:37;4.80;99.90
9043;DHT22;4556;49.150;8.808;2023-01-04T09:13:07;4.40;99.90
9043;DHT22;4556;49.150;8.808;2023-01-04T09:15:37;4.70;99.90
9043;DHT22;4556;49.150;8.808;2023-01-04T09:18:04;6.90;99.90
9043;DHT22;4556;49.150;8.808;2023-01-04T09:20:32;3.30;99.90
9043;DHT22;4556;49.150;8.808;2023-01-04T09:22:59;5.10;99.90
9043;DHT22;4556;49.150;8.808;2023-01-04T09:25:33;5.10;99.90
9043;DHT22;4556;49.150;8.808;2023-01-04T09:28:25;5.20;99.90
9043;DHT22;4556;49.150;8.808;2023-01-04T09:34:31;5.10;99.90
9043;DHT22;4556;49.150;8.808;2023-01-04T09:36:58;5.20;99.90
9043;DHT22;4556;49.150;8.808;2023-01-04T09:39:25;6.70;99.90
9043;DHT22;4556;49.150;8.808;2023-01-04T09:41:58;7.90;99.90
9043;DHT22;4556;49.150;8.808;2023-01-04T09:44:35;7.70;99.90
9043;DHT22;4556;49.150;8.808;2023-01-04T09:47:07;5.30;99.90
9043;DHT22;4556;49.150;8.808;2023-01-04T09:49:39;5.60;99.90
9043;DHT22;4556;49.150;8.808;2023-01-04T09:52:13;8.10;99.90
9043;DHT22;4556;49.150;8.808;2023-01-04T09:54:44;7.80;99.90
9043;DHT22;4556;49.150;8.808;2023-01-04T09:57:21;6.20;99.90
9043;DHT22;4556;49.150;8.808;2023-01-04T09:59:55;6.30;99.90
9043;DHT22;4556;49.150;8.808;2023-01-04T10:02:28;7.40;99.90
9043;DHT22;4556;49.150;8.808;2023-01-04T10:04:57;8.20;99.90
9043;DHT22;4556;49.150;8.808;2023-01-04T10:07:28;6.70;99.90
9043;DHT22;4556;49.150;8.808;2023-01-04T10:09:56;5.20;99.90
9043;DHT22;4556;49.150;8.808;2023-01-04T10:12:44;6.50;99.90
9043;DHT22;4556;49.150;8.808;2023-01-04T10:15:29;6.50;99.90
9043;DHT22;4556;49.150;8.808;2023-01-04T10:18:15;7.00;99.90
9043;DHT22;4556;49.150;8.808;2023-01-04T10:21:02;7.00;99.90
9043;DHT22;4556;49.150;8.808;2023-01-04T10:23:54;7.50;99.90
9043;DHT22;4556;49.150;8.808;2023-01-04T10:26:24;5.40;99.90
9043;DHT22;4556;49.150;8.808;2023-01-04T10:32:13;8.10;99.90
9043;DHT22;4556;49.150;8.808;2023-01-04T10:34:43;8.20;99.90
9043;DHT22;4556;49.150;8.808;2023-01-04T10:37:14;8.20;99.90
9043;DHT22;4556;49.150;8.808;2023-01-04T10:39:44;8.70;99.90
9043;DHT22;4556;49.150;8.808;2023-01-04T10:42:17;8.40;99.90
9043;DHT22;4556;49.150;8.808;2023-01-04T10:44:54;11.50;99.90
9043;DHT22;4556;49.150;8.808;2023-01-04T10:47:32;11.30;99.90
9043;DHT22;4556;49.150;8.808;2023-01-04T10:50:07;10.60;99.90
9043;DHT22;4556;49.150;8.808;2023-01-04T10:52:42;8.70;99.90
9043;DHT22;4556;49.150;8.808;2023-01-04T10:55:13;7.50;99.90
9043;DHT22;4556;49.150;8.808;2023-01-04T10:57:48;10.50;99.90
9043;DHT22;4556;49.150;8.808;2023-01-04T11:00:22;9.50;99.90
9043;DHT22;4556;49.150;8.808;2023-01-04T11:02:56;11.30;99.90
9043;DHT22;4556;49.150;8.808;2023-01-04T11:05:27;8.90;99.90
9043;DHT22;4556;49.150;8.808;2023-01-04T11:07:59;8.80;99.90
9043;DHT22;4556;49.150;8.808;2023-01-04T11:10:33;9.10;99.90
9043;DHT22;4556;49.150;8.808;2023-01-04T11:13:02;8.90;99.90
9043;DHT22;4556;49.150;8.808;2023-01-04T11:22:35;8.90;99.90
9043;DHT22;4556;49.150;8.808;2023-01-04T11:25:05;8.90;99.90
9043;DHT22;4556;49.150;8.808;2023-01-04T11:27:38;8.80;99.90
9043;DHT22;4556;49.150;8.808;2023-01-04T11:30:15;9.10;99.90
9043;DHT22;4556;49.150;8.808;2023-01-04T11:32:48;10.10;99.90
9043;DHT22;4556;49.150;8.808;2023-01-04T11:35:39;9.30;99.90
9043;DHT22;4556;49.150;8.808;2023-01-04T11:38:12;8.60;99.90
9043;DHT22;4556;49.150;8.808;2023-01-04T11:40:39;8.90;99.90
9043;DHT22;4556;49.150;8.808;2023-01-04T11:43:15;8.90;99.90
9043;DHT22;4556;49.150;8.808;2023-01-04T11:45:54;9.20;99.90
9043;DHT22;4556;49.150;8.808;2023-01-04T11:48:37;11.90;99.90
9043;DHT22;4556;49.150;8.808;2023-01-04T11:51:05;8.90;99.90
9043;DHT22;4556;49.150;8.808;2023-01-04T11:53:42;9.00;99.90
9043;DHT22;4556;49.150;8.808;2023-01-04T11:56:18;7.00;99.90
9043;DHT22;4556;49.150;8.808;2023-01-04T11:59:02;9.00;99.90
9043;DHT22;4556;49.150;8.808;2023-01-04T12:01:34;9.60;99.90
9043;DHT22;4556;49.150;8.808;2023-01-04T12:04:05;9.20;99.90
9043;DHT22;4556;49.150;8.808;2023-01-04T12:06:38;9.10;99.90
9043;DHT22;4556;49.150;8.808;2023-01-04T12:09:12;10.40;99.90
9043;DHT22;4556;49.150;8.808;2023-01-04T12:11:42;11.50;99.90
9043;DHT22;4556;49.150;8.808;2023-01-04T12:14:18;9.00;99.90
9043;DHT22;4556;49.150;8.808;2023-01-04T12:16:51;11.90;99.90
9043;DHT22;4556;49.150;8.808;2023-01-04T12:19:21;11.90;99.90
9043;DHT22;4556;49.150;8.808;2023-01-04T12:21:51;9.20;99.90
9043;DHT22;4556;49.150;8.808;2023-01-04T12:24:22;9.20;99.90
9043;DHT22;4556;49.150;8.808;2023-01-04T12:26:51;9.50;99.90
9043;DHT22;4556;49.150;8.808;2023-01-04T12:29:43;8.30;99.90
9043;DHT22;4556;49.150;8.808;2023-01-04T12:32:42;9.30;99.90
9043;DHT22;4556;49.150;8.808;2023-01-04T12:39:01;9.30;99.90
9043;DHT22;4556;49.150;8.808;2023-01-04T12:45:08;9.40;99.90
9043;DHT22;4556;49.150;8.808;2023-01-04T12:47:40;9.30;99.90
9043;DHT22;4556;49.150;8.808;2023-01-04T12:50:25;8.50;99.90
9043;DHT22;4556;49.150;8.808;2023-01-04T12:52:55;9.50;99.90
9043;DHT22;4556;49.150;8.808;2023-01-04T12:55:50;9.30;99.90
9043;DHT22;4556;49.150;8.808;2023-01-04T13:01:29;9.40;99.90
9043;DHT22;4556;49.150;8.808;2023-01-04T13:03:58;11.10;99.90
9043;DHT22;4556;49.150;8.808;2023-01-04T13:06:30;9.50;99.90
9043;DHT22;4556;49.150;8.808;2023-01-04T13:09:00;9.50;99.90
9043;DHT22;4556;49.150;8.808;2023-01-04T13:11:44;9.50;99.90
9043;DHT22;4556;49.150;8.808;2023-01-04T13:14:19;9.50;99.90
9043;DHT22;4556;49.150;8.808;2023-01-04T13:16:59;11.40;99.90
9043;DHT22;4556;49.150;8.808;2023-01-04T13:19:30;9.60;99.90
9043;DHT22;4556;49.150;8.808;2023-01-04T13:22:01;11.00;99.90
9043;DHT22;4556;49.150;8.808;2023-01-04T13:24:35;9.70;99.90
9043;DHT22;4556;49.150;8.808;2023-01-04T13:27:11;11.20;99.90
9043;DHT22;4556;49.150;8.808;2023-01-04T13:29:43;12.30;99.90
9043;DHT22;4556;49.150;8.808;2023-01-04T13:32:14;9.60;99.90
9043;DHT22;4556;49.150;8.808;2023-01-04T13:34:50;9.60;99.90
9043;DHT22;4556;49.150;8.808;2023-01-04T13:37:26;9.60;99.90
9043;DHT22;4556;49.150;8.808;2023-01-04T13:40:11;9.60;99.90
9043;DHT22;4556;49.150;8.808;2023-01-04T13:42:42;9.60;99.90
9043;DHT22;4556;49.150;8.808;2023-01-04T13:48:36;9.70;99.90
9043;DHT22;4556;49.150;8.808;2023-01-04T13:51:04;11.70;99.90
9043;DHT22;4556;49.150;8.808;2023-01-04T13:53:38;9.60;99.90
9043;DHT22;4556;49.150;8.808;2023-01-04T13:56:17;12.60;99.90
9043;DHT22;4556;49.150;8.808;2023-01-04T13:58:47;9.90;99.90
9043;DHT22;4556;49.150;8.808;2023-01-04T14:01:16;9.60;99.90
9043;DHT22;4556;49.150;8.808;2023-01-04T14:03:49;9.60;99.90
9043;DHT22;4556;49.150;8.808;2023-01-04T14:06:20;9.60;99.90
9043;DHT22;4556;49.150;8.808;2023-01-04T14:08:52;9.60;99.90
9043;DHT22;4556;49.150;8.808;2023-01-04T14:11:24;9.70;99.90
9043;DHT22;4556;49.150;8.808;2023-01-04T14:14:18;9.80;99.90
9043;DHT22;4556;49.150;8.808;2023-01-04T14:16:46;9.70;99.90
9043;DHT22;4556;49.150;8.808;2023-01-04T14:19:40;9.60;99.90
9043;DHT22;4556;49.150;8.808;2023-01-04T14:22:48;9.70;99.90
9043;DHT22;4556;49.150;8.808;2023-01-04T14:25:49;9.70;99.90
9043;DHT22;4556;49.150;8.808;2023-01-04T14:28:31;9.60;99.90
9043;DHT22;4556;49.150;8.808;2023-01-04T14:33:55;9.70;99.90
9043;DHT22;4556;49.150;8.808;2023-01-04T14:36:25;9.70;99.90
9043;DHT22;4556;49.150;8.808;2023-01-04T14:39:10;9.70;99.90
9043;DHT22;4556;49.150;8.808;2023-01-04T14:41:40;9.70;99.90
9043;DHT22;4556;49.150;8.808;2023-01-04T14:44:10;9.70;99.90
9043;DHT22;4556;49.150;8.808;2023-01-04T14:46:38;9.80;99.90
9043;DHT22;4556;49.150;8.808;2023-01-04T14:49:08;12.10;99.90
9043;DHT22;4556;49.150;8.808;2023-01-04T14:51:40;10.60;99.90
9043;DHT22;4556;49.150;8.808;2023-01-04T14:54:10;11.20;99.90
9043;DHT22;4556;49.150;8.808;2023-01-04T14:56:38;9.90;99.90
9043;DHT22;4556;49.150;8.808;2023-01-04T14:59:10;9.70;99.90
9043;DHT22;4556;49.150;8.808;2023-01-04T15:01:38;9.80;99.90
9043;DHT22;4556;49.150;8.808;2023-01-04T15:04:06;12.30;99.90
9043;DHT22;4556;49.150;8.808;2023-01-04T15:09:16;9.90;99.90
9043;DHT22;4556;49.150;8.808;2023-01-04T15:11:43;12.80;99.90
9043;DHT22;4556;49.150;8.808;2023-01-04T15:14:10;12.50;99.90
9043;DHT22;4556;49.150;8.808;2023-01-04T15:16:37;10.10;99.90
9043;DHT22;4556;49.150;8.808;2023-01-04T15:19:04;9.80;99.90
9043;DHT22;4556;49.150;8.808;2023-01-04T15:21:31;11.40;99.90
9043;DHT22;4556;49.150;8.808;2023-01-04T15:23:58;10.00;99.90
9043;DHT22;4556;49.150;8.808;2023-01-04T15:26:27;8.70;99.90
9043;DHT22;4556;49.150;8.808;2023-01-04T15:28:54;10.70;99.90
9043;DHT22;4556;49.150;8.808;2023-01-04T15:31:21;11.30;99.90
9043;DHT22;4556;49.150;8.808;2023-01-04T15:33:49;12.00;99.90
9043;DHT22;4556;49.150;8.808;2023-01-04T15:36:16;10.50;99.90
9043;DHT22;4556;49.150;8.808;2023-01-04T15:38:46;9.90;99.90
9043;DHT22;4556;49.150;8.808;2023-01-04T15:41:23;10.10;99.90
9043;DHT22;4556;49.150;8.808;2023-01-04T15:44:07;11.80;99.90
9043;DHT22;4556;49.150;8.808;2023-01-04T15:46:36;10.00;99.90
9043;DHT22;4556;49.150;8.808;2023-01-04T15:49:03;10.10;99.90
9043;DHT22;4556;49.150;8.808;2023-01-04T15:51:30;9.60;99.90
9043;DHT22;4556;49.150;8.808;2023-01-04T15:53:57;11.20;99.90
9043;DHT22;4556;49.150;8.808;2023-01-04T15:56:24;12.40;99.90
9043;DHT22;4556;49.150;8.808;2023-01-04T15:58:58;9.90;99.90
9043;DHT22;4556;49.150;8.808;2023-01-04T16:01:27;10.00;99.90
9043;DHT22;4556;49.150;8.808;2023-01-04T16:03:54;11.80;99.90
9043;DHT22;4556;49.150;8.808;2023-01-04T16:06:22;11.80;99.90
9043;DHT22;4556;49.150;8.808;2023-01-04T16:08:54;11.10;99.90
9043;DHT22;4556;49.150;8.808;2023-01-04T16:11:23;10.20;99.90
9043;DHT22;4556;49.150;8.808;2023-01-04T16:13:51;11.90;99.90
9043;DHT22;4556;49.150;8.808;2023-01-04T16:16:19;10.10;99.90
9043;DHT22;4556;49.150;8.808;2023-01-04T16:18:50;10.00;99.90
9043;DHT22;4556;49.150;8.808;2023-01-04T16:21:20;10.20;99.90
9043;DHT22;4556;49.150;8.808;2023-01-04T16:23:49;12.50;99.90
9043;DHT22;4556;49.150;8.808;2023-01-04T16:26:16;10.20;99.90
9043;DHT22;4556;49.150;8.808;2023-01-04T16:28:48;12.40;99.90
9043;DHT22;4556;49.150;8.808;2023-01-04T16:31:16;10.50;99.90
9043;DHT22;4556;49.150;8.808;2023-01-04T16:33:43;10.70;99.90
9043;DHT22;4556;49.150;8.808;2023-01-04T16:36:14;10.20;99.90
9043;DHT22;4556;49.150;8.808;2023-01-04T16:38:43;10.20;99.90
9043;DHT22;4556;49.150;8.808;2023-01-04T16:41:12;10.40;99.90
9043;DHT22;4556;49.150;8.808;2023-01-04T16:43:44;12.10;99.90
9043;DHT22;4556;49.150;8.808;2023-01-04T16:46:20;11.10;99.90
9043;DHT22;4556;49.150;8.808;2023-01-04T16:48:50;12.10;99.90
9043;DHT22;4556;49.150;8.808;2023-01-04T16:51:19;12.30;99.90
9043;DHT22;4556;49.150;8.808;2023-01-04T16:53:46;10.30;99.90
9043;DHT22;4556;49.150;8.808;2023-01-04T16:56:15;12.20;99.90
9043;DHT22;4556;49.150;8.808;2023-01-04T16:58:43;10.30;99.90
9043;DHT22;4556;49.150;8.808;2023-01-04T17:01:12;10.60;99.90
9043;DHT22;4556;49.150;8.808;2023-01-04T17:03:40;10.60;99.90
9043;DHT22;4556;49.150;8.808;2023-01-04T17:06:09;12.30;99.90
9043;DHT22;4556;49.150;8.808;2023-01-04T17:08:48;10.40;99.90
9043;DHT22;4556;49.150;8.808;2023-01-04T17:11:18;12.20;99.90
9043;DHT22;4556;49.150;8.808;2023-01-04T17:13:45;11.70;99.90
9043;DHT22;4556;49.150;8.808;2023-01-04T17:16:13;11.60;99.90
9043;DHT22;4556;49.150;8.808;2023-01-04T17:18:40;13.50;99.90
9043;DHT22;4556;49.150;8.808;2023-01-04T17:21:10;10.40;99.90
9043;DHT22;4556;49.150;8.808;2023-01-04T17:23:39;10.40;99.90
9043;DHT22;4556;49.150;8.808;2023-01-04T17:26:09;10.50;99.90
9043;DHT22;4556;49.150;8.808;2023-01-04T17:28:37;10.70;99.90
9043;DHT22;4556;49.150;8.808;2023-01-04T17:31:08;10.50;99.90
9043;DHT22;4556;49.150;8.808;2023-01-04T17:33:35;10.10;99.90
9043;DHT22;4556;49.150;8.808;2023-01-04T17:36:03;11.90;99.90
9043;DHT22;4556;49.150;8.808;2023-01-04T17:38:31;9.30;99.90
9043;DHT22;4556;49.150;8.808;2023-01-04T17:41:05;10.60;99.90
9043;DHT22;4556;49.150;8.808;2023-01-04T17:43:34;12.40;99.90
9043;DHT22;4556;49.150;8.808;2023-01-04T17:46:01;10.40;99.90
9043;DHT22;4556;49.150;8.808;2023-01-04T17:48:29;13.40;99.90
9043;DHT22;4556;49.150;8.808;2023-01-04T17:51:03;10.50;99.90
9043;DHT22;4556;49.150;8.808;2023-01-04T17:53:33;11.30;99.90
9043;DHT22;4556;49.150;8.808;2023-01-04T17:56:01;11.70;99.90
9043;DHT22;4556;49.150;8.808;2023-01-04T17:58:28;10.30;99.90
9043;DHT22;4556;49.150;8.808;2023-01-04T18:00:57;12.40;99.90
9043;DHT22;4556;49.150;8.808;2023-01-04T18:03:26;10.30;99.90
9043;DHT22;4556;49.150;8.808;2023-01-04T18:05:55;11.80;99.90
9043;DHT22;4556;49.150;8.808;2023-01-04T18:08:22;12.00;99.90
9043;DHT22;4556;49.150;8.808;2023-01-04T18:10:50;10.80;99.90
9043;DHT22;4556;49.150;8.808;2023-01-04T18:13:17;12.80;99.90
9043;DHT22;4556;49.150;8.808;2023-01-04T18:15:44;10.10;99.90
9043;DHT22;4556;49.150;8.808;2023-01-04T18:18:14;10.10;99.90
9043;DHT22;4556;49.150;8.808;2023-01-04T18:20:44;10.40;99.90
9043;DHT22;4556;49.150;8.808;2023-01-04T18:23:11;10.10;99.90
9043;DHT22;4556;49.150;8.808;2023-01-04T18:25:42;10.20;99.90
9043;DHT22;4556;49.150;8.808;2023-01-04T18:28:09;12.20;99.90
9043;DHT22;4556;49.150;8.808;2023-01-04T18:30:36;10.60;99.90
9043;DHT22;4556;49.150;8.808;2023-01-04T18:33:03;10.30;99.90
9043;DHT22;4556;49.150;8.808;2023-01-04T18:35:33;11.90;99.90
9043;DHT22;4556;49.150;8.808;2023-01-04T18:38:00;10.80;99.90
9043;DHT22;4556;49.150;8.808;2023-01-04T18:40:30;12.70;99.90
9043;DHT22;4556;49.150;8.808;2023-01-04T18:42:56;10.10;99.90
9043;DHT22;4556;49.150;8.808;2023-01-04T18:45:23;11.30;99.90
9043;DHT22;4556;49.150;8.808;2023-01-04T18:47:50;10.10;99.90
9043;DHT22;4556;49.150;8.808;2023-01-04T18:50:17;12.40;99.90
9043;DHT22;4556;49.150;8.808;2023-01-04T18:52:46;10.10;99.90
9043;DHT22;4556;49.150;8.808;2023-01-04T18:55:13;12.30;99.90
9043;DHT22;4556;49.150;8.808;2023-01-04T18:57:40;10.40;99.90
9043;DHT22;4556;49.150;8.808;2023-01-04T19:00:08;10.10;99.90
9043;DHT22;4556;49.150;8.808;2023-01-04T19:02:36;10.10;99.90